sensor_id;sensor_type;location;lat;lon;timestamp;temperature;humidity
42755;DHT22;28407;51.830;5.684;2023-09-19T00:00:01;18.80;76.60
42755;DHT22;28407;51.830;5.684;2023-09-19T00:02:05;18.80;76.70
42755;DHT22;28407;51.830;5.684;2023-09-19T00:04:05;18.80;76.80
42755;DHT22;28407;51.830;5.684;2023-09-19T00:06:10;18.70;76.70
42755;DHT22;28407;51.830;5.684;2023-09-19T00:08:11;18.70;76.70
42755;DHT22;28407;51.830;5.684;2023-09-19T00:10:13;18.70;76.80
42755;DHT22;28407;51.830;5.684;2023-09-19T00:12:15;18.70;76.80
42755;DHT22;28407;51.830;5.684;2023-09-19T00:14:16;18.70;76.80
42755;DHT22;28407;51.830;5.684;2023-09-19T00:16:17;18.70;76.80
42755;DHT22;28407;51.830;5.684;2023-09-19T00:18:20;18.70;76.80
42755;DHT22;28407;51.830;5.684;2023-09-19T00:20:22;18.70;76.90
42755;DHT22;28407;51.830;5.684;2023-09-19T00:22:23;18.60;76.90
42755;DHT22;28407;51.830;5.684;2023-09-19T00:24:26;18.60;77.00
42755;DHT22;28407;51.830;5.684;2023-09-19T00:26:28;18.60;77.10
42755;DHT22;28407;51.830;5.684;2023-09-19T00:28:31;18.50;77.10
42755;DHT22;28407;51.830;5.684;2023-09-19T00:30:32;18.50;77.20
42755;DHT22;28407;51.830;5.684;2023-09-19T00:32:33;18.50;77.30
42755;DHT22;28407;51.830;5.684;2023-09-19T00:34:34;18.50;77.30
42755;DHT22;28407;51.830;5.684;2023-09-19T00:36:34;18.60;77.40
42755;DHT22;28407;51.830;5.684;2023-09-19T00:38:35;18.50;77.30
42755;DHT22;28407;51.830;5.684;2023-09-19T00:40:36;18.60;77.40
42755;DHT22;28407;51.830;5.684;2023-09-19T00:42:38;18.50;77.20
42755;DHT22;28407;51.830;5.684;2023-09-19T00:44:39;18.60;77.40
42755;DHT22;28407;51.830;5.684;2023-09-19T00:46:40;18.60;77.40
42755;DHT22;28407;51.830;5.684;2023-09-19T00:48:42;18.50;77.40
42755;DHT22;28407;51.830;5.684;2023-09-19T00:50:45;18.50;77.40
42755;DHT22;28407;51.830;5.684;2023-09-19T00:52:50;18.50;77.40
42755;DHT22;28407;51.830;5.684;2023-09-19T00:54:54;18.50;77.30
42755;DHT22;28407;51.830;5.684;2023-09-19T00:56:56;18.50;77.40
42755;DHT22;28407;51.830;5.684;2023-09-19T00:58:57;18.40;77.40
42755;DHT22;28407;51.830;5.684;2023-09-19T01:00:58;18.40;77.40
42755;DHT22;28407;51.830;5.684;2023-09-19T01:02:58;18.40;77.40
42755;DHT22;28407;51.830;5.684;2023-09-19T01:05:00;18.40;77.40
42755;DHT22;28407;51.830;5.684;2023-09-19T01:07:01;18.40;77.40
42755;DHT22;28407;51.830;5.684;2023-09-19T01:09:02;18.40;77.40
42755;DHT22;28407;51.830;5.684;2023-09-19T01:11:11;18.30;77.40
42755;DHT22;28407;51.830;5.684;2023-09-19T01:13:58;18.30;77.40
42755;DHT22;28407;51.830;5.684;2023-09-19T01:16:07;18.30;77.40
42755;DHT22;28407;51.830;5.684;2023-09-19T01:23:06;18.30;77.40
42755;DHT22;28407;51.830;5.684;2023-09-19T01:28:15;18.20;77.30
42755;DHT22;28407;51.830;5.684;2023-09-19T01:30:24;18.20;77.30
42755;DHT22;28407;51.830;5.684;2023-09-19T01:32:29;18.20;77.20
42755;DHT22;28407;51.830;5.684;2023-09-19T01:34:57;18.10;77.20
42755;DHT22;28407;51.830;5.684;2023-09-19T01:37:04;18.10;77.10
42755;DHT22;28407;51.830;5.684;2023-09-19T01:39:06;18.10;77.20
42755;DHT22;28407;51.830;5.684;2023-09-19T01:41:12;18.00;77.10
42755;DHT22;28407;51.830;5.684;2023-09-19T01:43:31;18.00;77.10
42755;DHT22;28407;51.830;5.684;2023-09-19T01:50:32;17.90;77.00
42755;DHT22;28407;51.830;5.684;2023-09-19T01:52:42;17.90;77.10
42755;DHT22;28407;51.830;5.684;2023-09-19T01:54:52;17.90;77.20
42755;DHT22;28407;51.830;5.684;2023-09-19T01:57:15;17.90;77.20
42755;DHT22;28407;51.830;5.684;2023-09-19T01:59:23;17.80;77.30
42755;DHT22;28407;51.830;5.684;2023-09-19T02:01:26;17.90;77.40
42755;DHT22;28407;51.830;5.684;2023-09-19T02:03:28;17.80;77.30
42755;DHT22;28407;51.830;5.684;2023-09-19T02:05:29;17.80;77.20
42755;DHT22;28407;51.830;5.684;2023-09-19T02:07:31;17.80;77.20
42755;DHT22;28407;51.830;5.684;2023-09-19T02:09:32;17.80;77.20
42755;DHT22;28407;51.830;5.684;2023-09-19T02:11:35;17.80;77.20
42755;DHT22;28407;51.830;5.684;2023-09-19T02:13:37;17.90;77.20
42755;DHT22;28407;51.830;5.684;2023-09-19T02:15:38;17.80;77.10
42755;DHT22;28407;51.830;5.684;2023-09-19T02:17:39;17.80;76.90
42755;DHT22;28407;51.830;5.684;2023-09-19T02:19:40;17.80;77.00
42755;DHT22;28407;51.830;5.684;2023-09-19T02:21:41;17.70;77.00
42755;DHT22;28407;51.830;5.684;2023-09-19T02:23:42;17.70;77.00
42755;DHT22;28407;51.830;5.684;2023-09-19T02:25:42;17.60;77.30
42755;DHT22;28407;51.830;5.684;2023-09-19T02:27:43;17.60;77.10
42755;DHT22;28407;51.830;5.684;2023-09-19T02:29:44;17.60;77.00
42755;DHT22;28407;51.830;5.684;2023-09-19T02:31:44;17.60;76.90
42755;DHT22;28407;51.830;5.684;2023-09-19T02:33:46;17.60;76.90
42755;DHT22;28407;51.830;5.684;2023-09-19T02:35:47;17.50;76.80
42755;DHT22;28407;51.830;5.684;2023-09-19T02:37:48;17.50;76.80
42755;DHT22;28407;51.830;5.684;2023-09-19T02:39:49;17.50;76.80
42755;DHT22;28407;51.830;5.684;2023-09-19T02:41:49;17.50;76.80
42755;DHT22;28407;51.830;5.684;2023-09-19T02:43:50;17.50;76.70
42755;DHT22;28407;51.830;5.684;2023-09-19T02:45:51;17.40;76.70
42755;DHT22;28407;51.830;5.684;2023-09-19T02:47:53;17.40;76.80
42755;DHT22;28407;51.830;5.684;2023-09-19T02:49:55;17.40;76.80
42755;DHT22;28407;51.830;5.684;2023-09-19T02:51:55;17.40;76.70
42755;DHT22;28407;51.830;5.684;2023-09-19T02:54:02;17.30;76.60
42755;DHT22;28407;51.830;5.684;2023-09-19T02:56:04;17.30;76.60
42755;DHT22;28407;51.830;5.684;2023-09-19T02:58:06;17.30;76.60
42755;DHT22;28407;51.830;5.684;2023-09-19T03:00:09;17.30;76.50
42755;DHT22;28407;51.830;5.684;2023-09-19T03:02:12;17.30;76.40
42755;DHT22;28407;51.830;5.684;2023-09-19T03:04:14;17.30;76.40
42755;DHT22;28407;51.830;5.684;2023-09-19T03:06:22;17.30;76.30
42755;DHT22;28407;51.830;5.684;2023-09-19T03:08:24;17.30;76.20
42755;DHT22;28407;51.830;5.684;2023-09-19T03:10:25;17.30;76.10
42755;DHT22;28407;51.830;5.684;2023-09-19T03:12:26;17.20;76.10
42755;DHT22;28407;51.830;5.684;2023-09-19T03:14:27;17.20;76.10
42755;DHT22;28407;51.830;5.684;2023-09-19T03:16:32;17.20;76.00
42755;DHT22;28407;51.830;5.684;2023-09-19T03:18:35;17.20;75.90
42755;DHT22;28407;51.830;5.684;2023-09-19T03:20:36;17.20;75.90
42755;DHT22;28407;51.830;5.684;2023-09-19T03:22:37;17.10;75.80
42755;DHT22;28407;51.830;5.684;2023-09-19T03:24:39;17.20;75.90
42755;DHT22;28407;51.830;5.684;2023-09-19T03:26:40;17.10;75.80
42755;DHT22;28407;51.830;5.684;2023-09-19T03:28:41;17.20;75.80
42755;DHT22;28407;51.830;5.684;2023-09-19T03:30:43;17.10;75.70
42755;DHT22;28407;51.830;5.684;2023-09-19T03:32:47;17.10;75.60
42755;DHT22;28407;51.830;5.684;2023-09-19T03:34:51;17.10;75.60
42755;DHT22;28407;51.830;5.684;2023-09-19T03:36:51;17.10;75.50
42755;DHT22;28407;51.830;5.684;2023-09-19T03:38:52;17.00;75.50
42755;DHT22;28407;51.830;5.684;2023-09-19T03:40:53;17.00;75.40
42755;DHT22;28407;51.830;5.684;2023-09-19T03:42:53;17.00;75.40
42755;DHT22;28407;51.830;5.684;2023-09-19T03:44:55;17.10;75.40
42755;DHT22;28407;51.830;5.684;2023-09-19T03:46:56;17.00;75.20
42755;DHT22;28407;51.830;5.684;2023-09-19T03:48:58;17.00;75.10
42755;DHT22;28407;51.830;5.684;2023-09-19T03:50:58;17.00;75.20
42755;DHT22;28407;51.830;5.684;2023-09-19T03:52:59;16.90;75.20
42755;DHT22;28407;51.830;5.684;2023-09-19T03:55:00;16.90;75.10
42755;DHT22;28407;51.830;5.684;2023-09-19T03:57:03;16.90;75.10
42755;DHT22;28407;51.830;5.684;2023-09-19T03:59:04;16.90;75.10
42755;DHT22;28407;51.830;5.684;2023-09-19T04:01:06;16.80;74.90
42755;DHT22;28407;51.830;5.684;2023-09-19T04:03:09;16.80;74.90
42755;DHT22;28407;51.830;5.684;2023-09-19T04:05:11;16.80;74.80
42755;DHT22;28407;51.830;5.684;2023-09-19T04:07:12;16.80;74.80
42755;DHT22;28407;51.830;5.684;2023-09-19T04:09:13;16.80;74.60
42755;DHT22;28407;51.830;5.684;2023-09-19T04:11:13;16.80;74.70
42755;DHT22;28407;51.830;5.684;2023-09-19T04:13:14;16.80;74.60
42755;DHT22;28407;51.830;5.684;2023-09-19T04:15:15;16.80;74.60
42755;DHT22;28407;51.830;5.684;2023-09-19T04:17:17;16.80;74.60
42755;DHT22;28407;51.830;5.684;2023-09-19T04:19:19;16.80;74.30
42755;DHT22;28407;51.830;5.684;2023-09-19T04:21:19;16.80;74.30
42755;DHT22;28407;51.830;5.684;2023-09-19T04:23:20;16.80;74.20
42755;DHT22;28407;51.830;5.684;2023-09-19T04:25:21;16.70;74.10
42755;DHT22;28407;51.830;5.684;2023-09-19T04:27:22;16.80;74.10
42755;DHT22;28407;51.830;5.684;2023-09-19T04:29:23;16.80;74.10
42755;DHT22;28407;51.830;5.684;2023-09-19T04:31:24;16.70;74.10
42755;DHT22;28407;51.830;5.684;2023-09-19T04:33:25;16.70;74.10
42755;DHT22;28407;51.830;5.684;2023-09-19T04:35:27;16.70;74.10
42755;DHT22;28407;51.830;5.684;2023-09-19T04:37:32;16.70;74.00
42755;DHT22;28407;51.830;5.684;2023-09-19T04:39:33;16.70;74.00
42755;DHT22;28407;51.830;5.684;2023-09-19T04:41:34;16.70;74.00
42755;DHT22;28407;51.830;5.684;2023-09-19T04:43:35;16.70;74.00
42755;DHT22;28407;51.830;5.684;2023-09-19T04:45:35;16.70;73.90
42755;DHT22;28407;51.830;5.684;2023-09-19T04:47:38;16.70;74.00
42755;DHT22;28407;51.830;5.684;2023-09-19T04:49:39;16.70;74.00
42755;DHT22;28407;51.830;5.684;2023-09-19T04:51:40;16.70;73.90
42755;DHT22;28407;51.830;5.684;2023-09-19T04:53:41;16.70;74.00
42755;DHT22;28407;51.830;5.684;2023-09-19T04:55:41;16.60;74.00
42755;DHT22;28407;51.830;5.684;2023-09-19T04:57:45;16.70;74.00
42755;DHT22;28407;51.830;5.684;2023-09-19T04:59:47;16.60;74.00
42755;DHT22;28407;51.830;5.684;2023-09-19T05:01:48;16.60;74.00
42755;DHT22;28407;51.830;5.684;2023-09-19T05:03:49;16.60;74.00
42755;DHT22;28407;51.830;5.684;2023-09-19T05:05:53;16.60;74.10
42755;DHT22;28407;51.830;5.684;2023-09-19T05:07:53;16.60;74.10
42755;DHT22;28407;51.830;5.684;2023-09-19T05:09:54;16.60;74.00
42755;DHT22;28407;51.830;5.684;2023-09-19T05:11:55;16.70;74.00
42755;DHT22;28407;51.830;5.684;2023-09-19T05:13:57;16.60;74.00
42755;DHT22;28407;51.830;5.684;2023-09-19T05:16:02;16.70;74.00
42755;DHT22;28407;51.830;5.684;2023-09-19T05:18:03;16.60;74.00
42755;DHT22;28407;51.830;5.684;2023-09-19T05:20:04;16.60;74.00
42755;DHT22;28407;51.830;5.684;2023-09-19T05:22:15;16.60;74.00
42755;DHT22;28407;51.830;5.684;2023-09-19T05:24:16;16.60;74.20
42755;DHT22;28407;51.830;5.684;2023-09-19T05:26:17;16.50;74.10
42755;DHT22;28407;51.830;5.684;2023-09-19T05:28:18;16.60;74.20
42755;DHT22;28407;51.830;5.684;2023-09-19T05:30:19;16.50;74.10
42755;DHT22;28407;51.830;5.684;2023-09-19T05:32:20;16.60;74.20
42755;DHT22;28407;51.830;5.684;2023-09-19T05:34:21;16.50;74.10
42755;DHT22;28407;51.830;5.684;2023-09-19T05:36:21;16.60;74.20
42755;DHT22;28407;51.830;5.684;2023-09-19T05:38:22;16.60;74.20
42755;DHT22;28407;51.830;5.684;2023-09-19T05:40:24;16.60;74.20
42755;DHT22;28407;51.830;5.684;2023-09-19T05:42:25;16.50;74.20
42755;DHT22;28407;51.830;5.684;2023-09-19T05:44:26;16.50;74.20
42755;DHT22;28407;51.830;5.684;2023-09-19T05:46:27;16.50;74.30
42755;DHT22;28407;51.830;5.684;2023-09-19T05:48:32;16.50;74.30
42755;DHT22;28407;51.830;5.684;2023-09-19T05:50:36;16.50;74.40
42755;DHT22;28407;51.830;5.684;2023-09-19T05:52:38;16.50;74.40
42755;DHT22;28407;51.830;5.684;2023-09-19T05:54:39;16.50;74.50
42755;DHT22;28407;51.830;5.684;2023-09-19T05:56:40;16.50;74.50
42755;DHT22;28407;51.830;5.684;2023-09-19T05:58:42;16.50;74.50
42755;DHT22;28407;51.830;5.684;2023-09-19T06:00:44;16.50;74.60
42755;DHT22;28407;51.830;5.684;2023-09-19T06:02:53;16.50;74.60
42755;DHT22;28407;51.830;5.684;2023-09-19T06:04:54;16.50;74.70
42755;DHT22;28407;51.830;5.684;2023-09-19T06:06:55;16.50;74.80
42755;DHT22;28407;51.830;5.684;2023-09-19T06:08:58;16.50;74.80
42755;DHT22;28407;51.830;5.684;2023-09-19T06:10:59;16.50;74.70
42755;DHT22;28407;51.830;5.684;2023-09-19T06:13:02;16.60;74.70
42755;DHT22;28407;51.830;5.684;2023-09-19T06:15:05;16.60;74.80
42755;DHT22;28407;51.830;5.684;2023-09-19T06:17:06;16.60;74.80
42755;DHT22;28407;51.830;5.684;2023-09-19T06:19:07;16.60;74.80
42755;DHT22;28407;51.830;5.684;2023-09-19T06:21:09;16.60;74.90
42755;DHT22;28407;51.830;5.684;2023-09-19T06:23:10;16.60;75.00
42755;DHT22;28407;51.830;5.684;2023-09-19T06:25:15;16.60;75.00
42755;DHT22;28407;51.830;5.684;2023-09-19T06:27:22;16.60;75.00
42755;DHT22;28407;51.830;5.684;2023-09-19T06:29:23;16.60;75.00
42755;DHT22;28407;51.830;5.684;2023-09-19T06:31:23;16.60;75.10
42755;DHT22;28407;51.830;5.684;2023-09-19T06:33:26;16.60;75.10
42755;DHT22;28407;51.830;5.684;2023-09-19T06:35:28;16.70;75.30
42755;DHT22;28407;51.830;5.684;2023-09-19T06:37:30;16.70;75.30
42755;DHT22;28407;51.830;5.684;2023-09-19T06:39:30;16.70;75.20
42755;DHT22;28407;51.830;5.684;2023-09-19T06:41:31;16.70;75.30
42755;DHT22;28407;51.830;5.684;2023-09-19T06:43:39;16.70;75.90
42755;DHT22;28407;51.830;5.684;2023-09-19T06:45:40;16.70;75.30
42755;DHT22;28407;51.830;5.684;2023-09-19T06:47:40;16.70;75.30
42755;DHT22;28407;51.830;5.684;2023-09-19T06:49:41;16.70;75.30
42755;DHT22;28407;51.830;5.684;2023-09-19T06:51:44;16.70;75.40
42755;DHT22;28407;51.830;5.684;2023-09-19T06:53:45;16.70;75.50
42755;DHT22;28407;51.830;5.684;2023-09-19T06:55:45;16.70;75.40
42755;DHT22;28407;51.830;5.684;2023-09-19T06:57:48;16.70;75.50
42755;DHT22;28407;51.830;5.684;2023-09-19T06:59:49;16.70;75.50
42755;DHT22;28407;51.830;5.684;2023-09-19T07:01:50;16.80;75.50
42755;DHT22;28407;51.830;5.684;2023-09-19T07:03:54;16.80;75.50
42755;DHT22;28407;51.830;5.684;2023-09-19T07:05:55;16.80;75.50
42755;DHT22;28407;51.830;5.684;2023-09-19T07:07:57;16.80;75.50
42755;DHT22;28407;51.830;5.684;2023-09-19T07:09:59;16.80;75.60
42755;DHT22;28407;51.830;5.684;2023-09-19T07:12:00;16.80;75.70
42755;DHT22;28407;51.830;5.684;2023-09-19T07:14:01;16.80;75.70
42755;DHT22;28407;51.830;5.684;2023-09-19T07:16:02;16.80;75.70
42755;DHT22;28407;51.830;5.684;2023-09-19T07:18:03;16.80;75.70
42755;DHT22;28407;51.830;5.684;2023-09-19T07:20:04;16.80;75.70
42755;DHT22;28407;51.830;5.684;2023-09-19T07:22:10;16.80;75.70
42755;DHT22;28407;51.830;5.684;2023-09-19T07:24:11;16.80;75.70
42755;DHT22;28407;51.830;5.684;2023-09-19T07:26:12;16.90;75.80
42755;DHT22;28407;51.830;5.684;2023-09-19T07:28:13;16.90;75.80
42755;DHT22;28407;51.830;5.684;2023-09-19T07:30:14;16.90;75.80
42755;DHT22;28407;51.830;5.684;2023-09-19T07:32:17;16.90;75.80
42755;DHT22;28407;51.830;5.684;2023-09-19T07:34:18;16.90;75.90
42755;DHT22;28407;51.830;5.684;2023-09-19T07:36:18;16.90;75.90
42755;DHT22;28407;51.830;5.684;2023-09-19T07:38:26;17.00;75.90
42755;DHT22;28407;51.830;5.684;2023-09-19T07:40:28;16.90;75.90
42755;DHT22;28407;51.830;5.684;2023-09-19T07:42:29;17.00;75.90
42755;DHT22;28407;51.830;5.684;2023-09-19T07:44:29;17.00;75.90
42755;DHT22;28407;51.830;5.684;2023-09-19T07:46:30;17.00;75.90
42755;DHT22;28407;51.830;5.684;2023-09-19T07:48:31;17.00;75.90
42755;DHT22;28407;51.830;5.684;2023-09-19T07:50:34;17.10;75.90
42755;DHT22;28407;51.830;5.684;2023-09-19T07:52:37;17.10;75.90
42755;DHT22;28407;51.830;5.684;2023-09-19T07:54:39;17.10;75.90
42755;DHT22;28407;51.830;5.684;2023-09-19T07:56:50;17.10;75.80
42755;DHT22;28407;51.830;5.684;2023-09-19T07:58:51;17.10;75.80
42755;DHT22;28407;51.830;5.684;2023-09-19T08:00:52;17.20;75.80
42755;DHT22;28407;51.830;5.684;2023-09-19T08:02:53;17.20;75.90
42755;DHT22;28407;51.830;5.684;2023-09-19T08:04:55;17.20;75.90
42755;DHT22;28407;51.830;5.684;2023-09-19T08:06:56;17.20;75.80
42755;DHT22;28407;51.830;5.684;2023-09-19T08:08:58;17.30;75.90
42755;DHT22;28407;51.830;5.684;2023-09-19T08:11:01;17.30;75.80
42755;DHT22;28407;51.830;5.684;2023-09-19T08:13:01;17.30;75.80
42755;DHT22;28407;51.830;5.684;2023-09-19T08:15:03;17.40;75.90
42755;DHT22;28407;51.830;5.684;2023-09-19T08:17:05;17.40;75.90
42755;DHT22;28407;51.830;5.684;2023-09-19T08:19:06;17.40;75.90
42755;DHT22;28407;51.830;5.684;2023-09-19T08:21:07;17.40;75.80
42755;DHT22;28407;51.830;5.684;2023-09-19T08:23:11;17.40;75.90
42755;DHT22;28407;51.830;5.684;2023-09-19T08:25:12;17.50;75.90
42755;DHT22;28407;51.830;5.684;2023-09-19T08:27:13;17.50;75.80
42755;DHT22;28407;51.830;5.684;2023-09-19T08:29:14;17.50;75.70
42755;DHT22;28407;51.830;5.684;2023-09-19T08:31:15;17.50;75.80
42755;DHT22;28407;51.830;5.684;2023-09-19T08:33:17;17.60;75.90
42755;DHT22;28407;51.830;5.684;2023-09-19T08:35:18;17.60;75.90
42755;DHT22;28407;51.830;5.684;2023-09-19T08:37:23;17.60;75.80
42755;DHT22;28407;51.830;5.684;2023-09-19T08:39:33;17.60;75.70
42755;DHT22;28407;51.830;5.684;2023-09-19T08:41:35;17.70;75.70
42755;DHT22;28407;51.830;5.684;2023-09-19T08:43:36;17.70;75.60
42755;DHT22;28407;51.830;5.684;2023-09-19T08:45:37;17.70;75.60
42755;DHT22;28407;51.830;5.684;2023-09-19T08:47:50;17.70;75.60
42755;DHT22;28407;51.830;5.684;2023-09-19T08:50:07;17.80;75.60
42755;DHT22;28407;51.830;5.684;2023-09-19T08:52:25;17.80;75.50
42755;DHT22;28407;51.830;5.684;2023-09-19T08:54:35;17.80;75.40
42755;DHT22;28407;51.830;5.684;2023-09-19T08:56:35;17.90;75.40
42755;DHT22;28407;51.830;5.684;2023-09-19T08:58:46;17.90;75.40
42755;DHT22;28407;51.830;5.684;2023-09-19T09:00:54;17.90;75.40
42755;DHT22;28407;51.830;5.684;2023-09-19T09:02:56;17.90;75.50
42755;DHT22;28407;51.830;5.684;2023-09-19T09:04:59;18.00;75.50
42755;DHT22;28407;51.830;5.684;2023-09-19T09:07:01;18.00;75.40
42755;DHT22;28407;51.830;5.684;2023-09-19T09:09:04;18.00;75.30
42755;DHT22;28407;51.830;5.684;2023-09-19T09:11:05;18.10;75.30
42755;DHT22;28407;51.830;5.684;2023-09-19T09:13:09;18.10;75.00
42755;DHT22;28407;51.830;5.684;2023-09-19T09:15:10;18.10;74.90
42755;DHT22;28407;51.830;5.684;2023-09-19T09:17:13;18.10;74.70
42755;DHT22;28407;51.830;5.684;2023-09-19T09:19:13;18.10;74.70
42755;DHT22;28407;51.830;5.684;2023-09-19T09:21:14;18.20;74.70
42755;DHT22;28407;51.830;5.684;2023-09-19T09:23:18;18.20;74.50
42755;DHT22;28407;51.830;5.684;2023-09-19T09:25:20;18.20;74.50
42755;DHT22;28407;51.830;5.684;2023-09-19T09:27:23;18.30;74.40
42755;DHT22;28407;51.830;5.684;2023-09-19T09:29:49;18.20;74.30
42755;DHT22;28407;51.830;5.684;2023-09-19T09:31:50;18.20;74.30
42755;DHT22;28407;51.830;5.684;2023-09-19T09:33:54;18.30;74.20
42755;DHT22;28407;51.830;5.684;2023-09-19T09:35:58;18.30;74.10
42755;DHT22;28407;51.830;5.684;2023-09-19T09:38:03;18.30;74.10
42755;DHT22;28407;51.830;5.684;2023-09-19T09:40:08;18.40;74.10
42755;DHT22;28407;51.830;5.684;2023-09-19T09:44:32;18.40;73.80
42755;DHT22;28407;51.830;5.684;2023-09-19T09:46:33;18.40;73.70
42755;DHT22;28407;51.830;5.684;2023-09-19T09:48:58;18.40;73.60
42755;DHT22;28407;51.830;5.684;2023-09-19T09:51:29;18.50;73.60
42755;DHT22;28407;51.830;5.684;2023-09-19T09:53:31;18.50;73.50
42755;DHT22;28407;51.830;5.684;2023-09-19T09:55:57;18.50;73.50
42755;DHT22;28407;51.830;5.684;2023-09-19T09:58:16;18.60;73.60
42755;DHT22;28407;51.830;5.684;2023-09-19T10:00:18;18.60;73.50
42755;DHT22;28407;51.830;5.684;2023-09-19T10:02:28;18.70;73.40
42755;DHT22;28407;51.830;5.684;2023-09-19T10:04:29;18.70;73.30
42755;DHT22;28407;51.830;5.684;2023-09-19T10:06:42;18.70;73.30
42755;DHT22;28407;51.830;5.684;2023-09-19T10:09:08;18.80;73.10
42755;DHT22;28407;51.830;5.684;2023-09-19T10:11:21;18.80;72.90
42755;DHT22;28407;51.830;5.684;2023-09-19T10:13:31;18.90;72.90
42755;DHT22;28407;51.830;5.684;2023-09-19T10:15:36;18.90;72.90
42755;DHT22;28407;51.830;5.684;2023-09-19T10:17:40;18.90;72.90
42755;DHT22;28407;51.830;5.684;2023-09-19T10:19:55;19.00;72.80
42755;DHT22;28407;51.830;5.684;2023-09-19T10:22:01;19.00;72.70
42755;DHT22;28407;51.830;5.684;2023-09-19T10:24:04;19.00;72.60
42755;DHT22;28407;51.830;5.684;2023-09-19T10:26:08;19.10;72.60
42755;DHT22;28407;51.830;5.684;2023-09-19T10:28:12;19.10;72.50
42755;DHT22;28407;51.830;5.684;2023-09-19T10:30:14;19.10;72.40
42755;DHT22;28407;51.830;5.684;2023-09-19T10:32:16;19.20;72.30
42755;DHT22;28407;51.830;5.684;2023-09-19T10:34:20;19.20;72.20
42755;DHT22;28407;51.830;5.684;2023-09-19T10:36:24;19.30;72.20
42755;DHT22;28407;51.830;5.684;2023-09-19T10:38:27;19.30;72.10
42755;DHT22;28407;51.830;5.684;2023-09-19T10:40:29;19.40;72.00
42755;DHT22;28407;51.830;5.684;2023-09-19T10:42:33;19.40;72.00
42755;DHT22;28407;51.830;5.684;2023-09-19T10:44:38;19.40;72.00
42755;DHT22;28407;51.830;5.684;2023-09-19T10:46:43;19.40;71.90
42755;DHT22;28407;51.830;5.684;2023-09-19T10:48:45;19.50;71.90
42755;DHT22;28407;51.830;5.684;2023-09-19T10:50:56;19.50;71.80
42755;DHT22;28407;51.830;5.684;2023-09-19T10:53:04;19.40;71.70
42755;DHT22;28407;51.830;5.684;2023-09-19T10:55:08;19.40;71.70
42755;DHT22;28407;51.830;5.684;2023-09-19T10:57:22;19.40;71.70
42755;DHT22;28407;51.830;5.684;2023-09-19T10:59:28;19.40;71.70
42755;DHT22;28407;51.830;5.684;2023-09-19T11:01:45;19.50;71.60
42755;DHT22;28407;51.830;5.684;2023-09-19T11:04:20;19.60;71.30
42755;DHT22;28407;51.830;5.684;2023-09-19T11:06:23;19.60;71.20
42755;DHT22;28407;51.830;5.684;2023-09-19T11:08:25;19.60;71.20
42755;DHT22;28407;51.830;5.684;2023-09-19T11:10:49;19.60;71.00
42755;DHT22;28407;51.830;5.684;2023-09-19T11:12:51;19.60;71.10
42755;DHT22;28407;51.830;5.684;2023-09-19T11:14:52;19.60;71.00
42755;DHT22;28407;51.830;5.684;2023-09-19T11:19:07;19.60;70.90
42755;DHT22;28407;51.830;5.684;2023-09-19T11:23:31;19.80;70.70
42755;DHT22;28407;51.830;5.684;2023-09-19T11:27:32;19.80;70.30
42755;DHT22;28407;51.830;5.684;2023-09-19T11:29:34;19.80;70.30
42755;DHT22;28407;51.830;5.684;2023-09-19T11:31:43;19.90;70.40
42755;DHT22;28407;51.830;5.684;2023-09-19T11:33:44;19.80;70.30
42755;DHT22;28407;51.830;5.684;2023-09-19T11:36:15;19.90;70.30
42755;DHT22;28407;51.830;5.684;2023-09-19T11:38:16;19.90;70.10
42755;DHT22;28407;51.830;5.684;2023-09-19T11:40:17;19.90;70.00
42755;DHT22;28407;51.830;5.684;2023-09-19T11:42:44;19.90;69.80
42755;DHT22;28407;51.830;5.684;2023-09-19T11:44:45;20.00;69.90
42755;DHT22;28407;51.830;5.684;2023-09-19T11:46:52;20.00;69.80
42755;DHT22;28407;51.830;5.684;2023-09-19T11:49:06;20.00;69.80
42755;DHT22;28407;51.830;5.684;2023-09-19T11:51:18;20.00;69.60
42755;DHT22;28407;51.830;5.684;2023-09-19T11:53:31;20.00;69.30
42755;DHT22;28407;51.830;5.684;2023-09-19T11:55:34;20.10;69.20
42755;DHT22;28407;51.830;5.684;2023-09-19T11:57:35;20.10;69.00
42755;DHT22;28407;51.830;5.684;2023-09-19T11:59:39;20.10;68.80
42755;DHT22;28407;51.830;5.684;2023-09-19T12:01:51;20.10;68.70
42755;DHT22;28407;51.830;5.684;2023-09-19T12:03:58;20.10;68.60
42755;DHT22;28407;51.830;5.684;2023-09-19T12:05:59;20.10;68.40
42755;DHT22;28407;51.830;5.684;2023-09-19T12:08:04;20.20;68.50
42755;DHT22;28407;51.830;5.684;2023-09-19T12:10:09;20.20;68.50
42755;DHT22;28407;51.830;5.684;2023-09-19T12:12:25;20.20;68.30
42755;DHT22;28407;51.830;5.684;2023-09-19T12:14:27;20.20;68.20
42755;DHT22;28407;51.830;5.684;2023-09-19T12:16:28;20.30;68.00
42755;DHT22;28407;51.830;5.684;2023-09-19T12:18:31;20.30;67.80
42755;DHT22;28407;51.830;5.684;2023-09-19T12:20:44;20.40;67.70
42755;DHT22;28407;51.830;5.684;2023-09-19T12:22:48;20.50;67.50
42755;DHT22;28407;51.830;5.684;2023-09-19T12:24:49;20.50;67.20
42755;DHT22;28407;51.830;5.684;2023-09-19T12:26:51;20.70;67.00
42755;DHT22;28407;51.830;5.684;2023-09-19T12:28:53;20.70;66.70
42755;DHT22;28407;51.830;5.684;2023-09-19T12:30:55;20.80;66.70
42755;DHT22;28407;51.830;5.684;2023-09-19T12:32:55;20.80;66.60
42755;DHT22;28407;51.830;5.684;2023-09-19T12:34:58;20.80;66.50
42755;DHT22;28407;51.830;5.684;2023-09-19T12:37:12;20.90;66.30
42755;DHT22;28407;51.830;5.684;2023-09-19T12:39:23;20.90;66.00
42755;DHT22;28407;51.830;5.684;2023-09-19T12:41:26;20.80;65.90
42755;DHT22;28407;51.830;5.684;2023-09-19T12:43:29;20.80;66.80
42755;DHT22;28407;51.830;5.684;2023-09-19T12:45:33;20.80;66.10
42755;DHT22;28407;51.830;5.684;2023-09-19T12:47:35;20.70;66.30
42755;DHT22;28407;51.830;5.684;2023-09-19T12:49:36;20.70;66.40
42755;DHT22;28407;51.830;5.684;2023-09-19T12:51:37;20.70;66.30
42755;DHT22;28407;51.830;5.684;2023-09-19T12:53:40;20.60;66.20
42755;DHT22;28407;51.830;5.684;2023-09-19T12:55:43;20.60;66.30
42755;DHT22;28407;51.830;5.684;2023-09-19T12:57:54;20.50;66.30
42755;DHT22;28407;51.830;5.684;2023-09-19T12:59:55;20.50;66.30
42755;DHT22;28407;51.830;5.684;2023-09-19T13:02:03;20.50;66.40
42755;DHT22;28407;51.830;5.684;2023-09-19T13:04:22;20.60;66.40
42755;DHT22;28407;51.830;5.684;2023-09-19T13:06:36;20.60;66.30
42755;DHT22;28407;51.830;5.684;2023-09-19T13:08:43;20.50;66.30
42755;DHT22;28407;51.830;5.684;2023-09-19T13:13:22;20.50;66.30
42755;DHT22;28407;51.830;5.684;2023-09-19T13:15:25;20.50;66.40
42755;DHT22;28407;51.830;5.684;2023-09-19T13:17:43;20.50;66.50
42755;DHT22;28407;51.830;5.684;2023-09-19T13:19:51;20.50;66.50
42755;DHT22;28407;51.830;5.684;2023-09-19T13:21:57;20.50;66.50
42755;DHT22;28407;51.830;5.684;2023-09-19T13:24:18;20.50;66.50
42755;DHT22;28407;51.830;5.684;2023-09-19T13:26:19;20.60;66.50